sensor_id;sensor_type;location;lat;lon;timestamp;pressure;altitude;pressure_sealevel;temperature
35582;BMP180;21687;48.900;9.188;2022-12-29T00:01:57;97986.00;;;8.20
35582;BMP180;21687;48.900;9.188;2022-12-29T00:04:24;97978.00;;;8.30
35582;BMP180;21687;48.900;9.188;2022-12-29T00:06:52;97977.00;;;8.30
35582;BMP180;21687;48.900;9.188;2022-12-29T00:09:21;97974.00;;;8.30
35582;BMP180;21687;48.900;9.188;2022-12-29T00:11:49;97974.00;;;8.40
35582;BMP180;21687;48.900;9.188;2022-12-29T00:14:22;97960.00;;;8.40
35582;BMP180;21687;48.900;9.188;2022-12-29T00:17:08;97957.00;;;8.50
35582;BMP180;21687;48.900;9.188;2022-12-29T00:19:36;97964.00;;;8.40
35582;BMP180;21687;48.900;9.188;2022-12-29T00:22:25;97963.00;;;8.50
35582;BMP180;21687;48.900;9.188;2022-12-29T00:25:19;97967.00;;;8.50
35582;BMP180;21687;48.900;9.188;2022-12-29T00:28:07;97961.00;;;8.60
35582;BMP180;21687;48.900;9.188;2022-12-29T00:30:58;97951.00;;;8.70
35582;BMP180;21687;48.900;9.188;2022-12-29T00:33:44;97951.00;;;8.80
35582;BMP180;21687;48.900;9.188;2022-12-29T00:36:41;97946.00;;;8.70
35582;BMP180;21687;48.900;9.188;2022-12-29T00:39:17;97945.00;;;8.80
35582;BMP180;21687;48.900;9.188;2022-12-29T00:42:12;97950.00;;;8.90
35582;BMP180;21687;48.900;9.188;2022-12-29T00:44:57;97939.00;;;8.90
35582;BMP180;21687;48.900;9.188;2022-12-29T00:47:27;97947.00;;;8.90
35582;BMP180;21687;48.900;9.188;2022-12-29T00:49:54;97939.00;;;8.90
35582;BMP180;21687;48.900;9.188;2022-12-29T00:52:21;97942.00;;;8.90
35582;BMP180;21687;48.900;9.188;2022-12-29T00:54:49;97945.00;;;8.90
35582;BMP180;21687;48.900;9.188;2022-12-29T00:57:18;97942.00;;;8.90
35582;BMP180;21687;48.900;9.188;2022-12-29T00:59:47;97940.00;;;8.90
35582;BMP180;21687;48.900;9.188;2022-12-29T01:02:15;97947.00;;;9.00
35582;BMP180;21687;48.900;9.188;2022-12-29T01:04:49;97945.00;;;9.00
35582;BMP180;21687;48.900;9.188;2022-12-29T01:07:15;97950.00;;;9.10
35582;BMP180;21687;48.900;9.188;2022-12-29T01:09:43;97948.00;;;9.10
35582;BMP180;21687;48.900;9.188;2022-12-29T01:12:28;97954.00;;;9.10
35582;BMP180;21687;48.900;9.188;2022-12-29T01:15:12;97958.00;;;9.10
35582;BMP180;21687;48.900;9.188;2022-12-29T01:17:45;97950.00;;;9.20
35582;BMP180;21687;48.900;9.188;2022-12-29T01:20:12;97965.00;;;9.20
35582;BMP180;21687;48.900;9.188;2022-12-29T01:22:40;97961.00;;;9.20
35582;BMP180;21687;48.900;9.188;2022-12-29T01:25:14;97964.00;;;9.10
35582;BMP180;21687;48.900;9.188;2022-12-29T01:27:45;97956.00;;;9.20
35582;BMP180;21687;48.900;9.188;2022-12-29T01:30:14;97970.00;;;9.20
35582;BMP180;21687;48.900;9.188;2022-12-29T01:32:45;97957.00;;;9.20
35582;BMP180;21687;48.900;9.188;2022-12-29T01:35:14;97964.00;;;9.20
35582;BMP180;21687;48.900;9.188;2022-12-29T01:37:41;97963.00;;;9.30
35582;BMP180;21687;48.900;9.188;2022-12-29T01:40:10;97962.00;;;9.30
35582;BMP180;21687;48.900;9.188;2022-12-29T01:42:43;97960.00;;;9.30
35582;BMP180;21687;48.900;9.188;2022-12-29T01:45:17;97957.00;;;9.20
35582;BMP180;21687;48.900;9.188;2022-12-29T01:48:01;97960.00;;;9.30
35582;BMP180;21687;48.900;9.188;2022-12-29T01:50:40;97971.00;;;9.30
35582;BMP180;21687;48.900;9.188;2022-12-29T01:53:28;97972.00;;;9.30
35582;BMP180;21687;48.900;9.188;2022-12-29T01:56:09;97972.00;;;9.20
35582;BMP180;21687;48.900;9.188;2022-12-29T01:58:44;97910.00;;;9.20
35582;BMP180;21687;48.900;9.188;2022-12-29T02:01:19;97965.00;;;9.20
35582;BMP180;21687;48.900;9.188;2022-12-29T02:03:53;97944.00;;;9.20
35582;BMP180;21687;48.900;9.188;2022-12-29T02:06:26;97944.00;;;9.30
35582;BMP180;21687;48.900;9.188;2022-12-29T02:08:56;97940.00;;;9.20
35582;BMP180;21687;48.900;9.188;2022-12-29T02:11:26;97938.00;;;9.20
35582;BMP180;21687;48.900;9.188;2022-12-29T02:13:55;97935.00;;;9.20
35582;BMP180;21687;48.900;9.188;2022-12-29T02:28:59;97931.00;;;9.30
35582;BMP180;21687;48.900;9.188;2022-12-29T02:31:45;97931.00;;;9.20
35582;BMP180;21687;48.900;9.188;2022-12-29T02:34:52;97934.00;;;9.20
35582;BMP180;21687;48.900;9.188;2022-12-29T02:37:50;97936.00;;;9.10
35582;BMP180;21687;48.900;9.188;2022-12-29T02:40:48;97929.00;;;9.20
35582;BMP180;21687;48.900;9.188;2022-12-29T02:43:51;97929.00;;;9.30
35582;BMP180;21687;48.900;9.188;2022-12-29T02:46:46;97913.00;;;9.20
35582;BMP180;21687;48.900;9.188;2022-12-29T02:49:21;97911.00;;;9.20
35582;BMP180;21687;48.900;9.188;2022-12-29T02:54:49;97914.00;;;9.20
35582;BMP180;21687;48.900;9.188;2022-12-29T03:00:12;97916.00;;;9.10
35582;BMP180;21687;48.900;9.188;2022-12-29T03:11:14;97923.00;;;9.10
35582;BMP180;21687;48.900;9.188;2022-12-29T03:14:28;97919.00;;;9.10
35582;BMP180;21687;48.900;9.188;2022-12-29T03:20:17;97908.00;;;9.10
35582;BMP180;21687;48.900;9.188;2022-12-29T03:22:59;97901.00;;;9.20
35582;BMP180;21687;48.900;9.188;2022-12-29T03:25:45;97901.00;;;9.20
35582;BMP180;21687;48.900;9.188;2022-12-29T03:28:20;97901.00;;;9.20
35582;BMP180;21687;48.900;9.188;2022-12-29T03:30:55;97900.00;;;9.30
35582;BMP180;21687;48.900;9.188;2022-12-29T03:33:30;97892.00;;;9.20
35582;BMP180;21687;48.900;9.188;2022-12-29T03:36:03;97890.00;;;9.20
35582;BMP180;21687;48.900;9.188;2022-12-29T03:38:37;97889.00;;;9.20
35582;BMP180;21687;48.900;9.188;2022-12-29T03:41:12;97889.00;;;9.40
35582;BMP180;21687;48.900;9.188;2022-12-29T03:43:44;97879.00;;;9.30
35582;BMP180;21687;48.900;9.188;2022-12-29T03:46:16;97871.00;;;9.40
35582;BMP180;21687;48.900;9.188;2022-12-29T03:48:48;97873.00;;;9.40
35582;BMP180;21687;48.900;9.188;2022-12-29T03:51:19;97866.00;;;9.30
35582;BMP180;21687;48.900;9.188;2022-12-29T03:53:48;97880.00;;;9.30
35582;BMP180;21687;48.900;9.188;2022-12-29T03:56:17;97883.00;;;9.20
35582;BMP180;21687;48.900;9.188;2022-12-29T03:58:49;97878.00;;;9.10
35582;BMP180;21687;48.900;9.188;2022-12-29T04:01:21;97876.00;;;9.10
35582;BMP180;21687;48.900;9.188;2022-12-29T04:03:51;97879.00;;;8.90
35582;BMP180;21687;48.900;9.188;2022-12-29T04:06:21;97874.00;;;9.00
35582;BMP180;21687;48.900;9.188;2022-12-29T04:08:51;97874.00;;;8.90
35582;BMP180;21687;48.900;9.188;2022-12-29T04:11:20;97887.00;;;9.00
35582;BMP180;21687;48.900;9.188;2022-12-29T04:13:49;97869.00;;;9.00
35582;BMP180;21687;48.900;9.188;2022-12-29T04:16:17;97878.00;;;9.00
35582;BMP180;21687;48.900;9.188;2022-12-29T04:18:48;97882.00;;;9.10
35582;BMP180;21687;48.900;9.188;2022-12-29T04:21:18;97886.00;;;9.20
35582;BMP180;21687;48.900;9.188;2022-12-29T04:23:48;97894.00;;;9.30
35582;BMP180;21687;48.900;9.188;2022-12-29T04:26:16;97894.00;;;9.40
35582;BMP180;21687;48.900;9.188;2022-12-29T04:29:42;97886.00;;;9.40
35582;BMP180;21687;48.900;9.188;2022-12-29T04:32:16;97888.00;;;9.40
35582;BMP180;21687;48.900;9.188;2022-12-29T04:34:49;97890.00;;;9.40
35582;BMP180;21687;48.900;9.188;2022-12-29T04:37:17;97884.00;;;9.40
35582;BMP180;21687;48.900;9.188;2022-12-29T04:39:46;97873.00;;;9.40
35582;BMP180;21687;48.900;9.188;2022-12-29T04:42:45;97878.00;;;9.30
35582;BMP180;21687;48.900;9.188;2022-12-29T04:45:23;97875.00;;;9.20
35582;BMP180;21687;48.900;9.188;2022-12-29T04:47:56;97872.00;;;9.10
35582;BMP180;21687;48.900;9.188;2022-12-29T04:50:24;97869.00;;;9.00
35582;BMP180;21687;48.900;9.188;2022-12-29T04:52:53;97863.00;;;9.00
35582;BMP180;21687;48.900;9.188;2022-12-29T04:55:26;97875.00;;;9.00
35582;BMP180;21687;48.900;9.188;2022-12-29T04:57:55;97870.00;;;8.90
35582;BMP180;21687;48.900;9.188;2022-12-29T05:00:26;97874.00;;;8.90
35582;BMP180;21687;48.900;9.188;2022-12-29T05:02:54;97871.00;;;8.90
35582;BMP180;21687;48.900;9.188;2022-12-29T05:05:22;97861.00;;;8.90
35582;BMP180;21687;48.900;9.188;2022-12-29T05:07:51;97863.00;;;8.90
35582;BMP180;21687;48.900;9.188;2022-12-29T05:10:20;97857.00;;;8.90
35582;BMP180;21687;48.900;9.188;2022-12-29T05:12:52;97856.00;;;8.90
35582;BMP180;21687;48.900;9.188;2022-12-29T05:15:19;97858.00;;;8.90
35582;BMP180;21687;48.900;9.188;2022-12-29T05:17:49;97858.00;;;8.80
35582;BMP180;21687;48.900;9.188;2022-12-29T05:20:18;97859.00;;;8.80
35582;BMP180;21687;48.900;9.188;2022-12-29T05:22:46;97845.00;;;8.90
35582;BMP180;21687;48.900;9.188;2022-12-29T05:25:14;97841.00;;;8.90
35582;BMP180;21687;48.900;9.188;2022-12-29T05:27:44;97855.00;;;9.20
35582;BMP180;21687;48.900;9.188;2022-12-29T05:30:14;97858.00;;;9.10
35582;BMP180;21687;48.900;9.188;2022-12-29T05:32:42;97873.00;;;9.20
35582;BMP180;21687;48.900;9.188;2022-12-29T05:35:10;97872.00;;;9.30
35582;BMP180;21687;48.900;9.188;2022-12-29T05:37:39;97870.00;;;9.40
35582;BMP180;21687;48.900;9.188;2022-12-29T05:40:11;97869.00;;;9.60
35582;BMP180;21687;48.900;9.188;2022-12-29T05:42:41;97870.00;;;9.70
35582;BMP180;21687;48.900;9.188;2022-12-29T05:45:10;97866.00;;;9.80
35582;BMP180;21687;48.900;9.188;2022-12-29T05:47:42;97853.00;;;9.90
35582;BMP180;21687;48.900;9.188;2022-12-29T05:50:14;97873.00;;;10.10
35582;BMP180;21687;48.900;9.188;2022-12-29T05:52:42;97866.00;;;10.30
35582;BMP180;21687;48.900;9.188;2022-12-29T05:55:10;97864.00;;;10.40
35582;BMP180;21687;48.900;9.188;2022-12-29T05:57:46;97857.00;;;10.50
35582;BMP180;21687;48.900;9.188;2022-12-29T06:00:16;97844.00;;;10.60
35582;BMP180;21687;48.900;9.188;2022-12-29T06:02:43;97844.00;;;10.60
35582;BMP180;21687;48.900;9.188;2022-12-29T06:05:10;97843.00;;;10.50
35582;BMP180;21687;48.900;9.188;2022-12-29T06:07:42;97831.00;;;10.50
35582;BMP180;21687;48.900;9.188;2022-12-29T06:10:10;97834.00;;;10.40
35582;BMP180;21687;48.900;9.188;2022-12-29T06:12:42;97838.00;;;10.30
35582;BMP180;21687;48.900;9.188;2022-12-29T06:15:11;97862.00;;;10.30
35582;BMP180;21687;48.900;9.188;2022-12-29T06:17:38;97851.00;;;10.20
35582;BMP180;21687;48.900;9.188;2022-12-29T06:20:08;97848.00;;;10.20
35582;BMP180;21687;48.900;9.188;2022-12-29T06:22:38;97862.00;;;10.30
35582;BMP180;21687;48.900;9.188;2022-12-29T06:25:05;97866.00;;;10.20
35582;BMP180;21687;48.900;9.188;2022-12-29T06:27:35;97877.00;;;10.30
35582;BMP180;21687;48.900;9.188;2022-12-29T06:30:05;97876.00;;;10.30
35582;BMP180;21687;48.900;9.188;2022-12-29T06:32:32;97868.00;;;10.20
35582;BMP180;21687;48.900;9.188;2022-12-29T06:34:59;97865.00;;;10.20
35582;BMP180;21687;48.900;9.188;2022-12-29T06:37:31;97864.00;;;10.20
35582;BMP180;21687;48.900;9.188;2022-12-29T06:40:02;97860.00;;;10.10
35582;BMP180;21687;48.900;9.188;2022-12-29T06:42:32;97859.00;;;10.10
35582;BMP180;21687;48.900;9.188;2022-12-29T06:45:02;97867.00;;;10.00
35582;BMP180;21687;48.900;9.188;2022-12-29T06:47:33;97868.00;;;10.10
35582;BMP180;21687;48.900;9.188;2022-12-29T06:50:02;97865.00;;;10.10
35582;BMP180;21687;48.900;9.188;2022-12-29T06:52:34;97868.00;;;10.10
35582;BMP180;21687;48.900;9.188;2022-12-29T06:55:03;97867.00;;;10.10
35582;BMP180;21687;48.900;9.188;2022-12-29T06:57:36;97863.00;;;10.10
35582;BMP180;21687;48.900;9.188;2022-12-29T07:00:11;97873.00;;;10.10
35582;BMP180;21687;48.900;9.188;2022-12-29T07:02:45;97865.00;;;10.00
35582;BMP180;21687;48.900;9.188;2022-12-29T07:05:12;97870.00;;;10.00
35582;BMP180;21687;48.900;9.188;2022-12-29T07:07:44;97866.00;;;10.00
35582;BMP180;21687;48.900;9.188;2022-12-29T07:10:11;97870.00;;;9.90
35582;BMP180;21687;48.900;9.188;2022-12-29T07:12:39;97859.00;;;9.90
35582;BMP180;21687;48.900;9.188;2022-12-29T07:15:08;97853.00;;;9.90
35582;BMP180;21687;48.900;9.188;2022-12-29T07:17:37;97846.00;;;10.00
35582;BMP180;21687;48.900;9.188;2022-12-29T07:20:11;97846.00;;;9.90
35582;BMP180;21687;48.900;9.188;2022-12-29T07:22:39;97855.00;;;9.80
35582;BMP180;21687;48.900;9.188;2022-12-29T07:25:08;97872.00;;;9.90
35582;BMP180;21687;48.900;9.188;2022-12-29T07:27:34;97871.00;;;9.90
35582;BMP180;21687;48.900;9.188;2022-12-29T07:30:04;97856.00;;;10.00
35582;BMP180;21687;48.900;9.188;2022-12-29T07:32:33;97856.00;;;10.00
35582;BMP180;21687;48.900;9.188;2022-12-29T07:35:00;97857.00;;;10.10
35582;BMP180;21687;48.900;9.188;2022-12-29T07:37:29;97857.00;;;10.10
35582;BMP180;21687;48.900;9.188;2022-12-29T07:39:57;97853.00;;;10.20
35582;BMP180;21687;48.900;9.188;2022-12-29T07:42:25;97858.00;;;10.20
35582;BMP180;21687;48.900;9.188;2022-12-29T07:44:53;97866.00;;;10.20
35582;BMP180;21687;48.900;9.188;2022-12-29T07:47:23;97870.00;;;10.30
35582;BMP180;21687;48.900;9.188;2022-12-29T07:49:52;97869.00;;;10.20
35582;BMP180;21687;48.900;9.188;2022-12-29T07:52:20;97875.00;;;10.20
35582;BMP180;21687;48.900;9.188;2022-12-29T07:54:52;97873.00;;;10.10
35582;BMP180;21687;48.900;9.188;2022-12-29T07:57:19;97878.00;;;10.10
35582;BMP180;21687;48.900;9.188;2022-12-29T07:59:47;97864.00;;;10.10
35582;BMP180;21687;48.900;9.188;2022-12-29T08:04:53;97878.00;;;10.00
35582;BMP180;21687;48.900;9.188;2022-12-29T08:07:20;97867.00;;;10.10
35582;BMP180;21687;48.900;9.188;2022-12-29T08:09:46;97894.00;;;10.10
35582;BMP180;21687;48.900;9.188;2022-12-29T08:12:13;97890.00;;;10.20
35582;BMP180;21687;48.900;9.188;2022-12-29T08:14:39;97891.00;;;10.20
35582;BMP180;21687;48.900;9.188;2022-12-29T08:17:06;97902.00;;;10.20
35582;BMP180;21687;48.900;9.188;2022-12-29T08:19:32;97903.00;;;10.20
35582;BMP180;21687;48.900;9.188;2022-12-29T08:21:58;97907.00;;;10.30
35582;BMP180;21687;48.900;9.188;2022-12-29T08:24:25;97902.00;;;10.30
35582;BMP180;21687;48.900;9.188;2022-12-29T08:26:51;97905.00;;;10.30
35582;BMP180;21687;48.900;9.188;2022-12-29T08:29:17;97896.00;;;10.40
35582;BMP180;21687;48.900;9.188;2022-12-29T08:31:44;97894.00;;;10.30
35582;BMP180;21687;48.900;9.188;2022-12-29T08:34:10;97891.00;;;10.40
35582;BMP180;21687;48.900;9.188;2022-12-29T08:36:37;97899.00;;;10.40
35582;BMP180;21687;48.900;9.188;2022-12-29T08:39:03;97886.00;;;10.40
35582;BMP180;21687;48.900;9.188;2022-12-29T08:41:30;97888.00;;;10.50
35582;BMP180;21687;48.900;9.188;2022-12-29T08:43:56;97889.00;;;10.40
35582;BMP180;21687;48.900;9.188;2022-12-29T08:46:23;97885.00;;;10.50
35582;BMP180;21687;48.900;9.188;2022-12-29T08:48:49;97892.00;;;10.60
35582;BMP180;21687;48.900;9.188;2022-12-29T08:51:16;97899.00;;;10.60
35582;BMP180;21687;48.900;9.188;2022-12-29T08:53:46;97899.00;;;10.60
35582;BMP180;21687;48.900;9.188;2022-12-29T08:56:13;97907.00;;;10.70
35582;BMP180;21687;48.900;9.188;2022-12-29T08:58:39;97916.00;;;10.60
35582;BMP180;21687;48.900;9.188;2022-12-29T09:01:06;97913.00;;;10.60
35582;BMP180;21687;48.900;9.188;2022-12-29T09:03:33;97922.00;;;10.60
35582;BMP180;21687;48.900;9.188;2022-12-29T09:06:00;97914.00;;;10.60
35582;BMP180;21687;48.900;9.188;2022-12-29T09:08:26;97928.00;;;10.80
35582;BMP180;21687;48.900;9.188;2022-12-29T09:10:53;97930.00;;;10.80
35582;BMP180;21687;48.900;9.188;2022-12-29T09:13:19;97923.00;;;10.90
35582;BMP180;21687;48.900;9.188;2022-12-29T09:15:46;97931.00;;;11.00
35582;BMP180;21687;48.900;9.188;2022-12-29T09:18:12;97935.00;;;11.10
35582;BMP180;21687;48.900;9.188;2022-12-29T09:20:39;97930.00;;;11.30
35582;BMP180;21687;48.900;9.188;2022-12-29T09:23:05;97935.00;;;11.40
35582;BMP180;21687;48.900;9.188;2022-12-29T09:25:34;97933.00;;;11.50
35582;BMP180;21687;48.900;9.188;2022-12-29T09:28:00;97939.00;;;11.50
35582;BMP180;21687;48.900;9.188;2022-12-29T09:30:31;97938.00;;;11.60
35582;BMP180;21687;48.900;9.188;2022-12-29T09:32:58;97937.00;;;11.60
35582;BMP180;21687;48.900;9.188;2022-12-29T09:35:24;97929.00;;;11.60
35582;BMP180;21687;48.900;9.188;2022-12-29T09:37:50;97936.00;;;11.80
35582;BMP180;21687;48.900;9.188;2022-12-29T09:40:30;97939.00;;;11.80
35582;BMP180;21687;48.900;9.188;2022-12-29T09:43:15;97944.00;;;12.00
35582;BMP180;21687;48.900;9.188;2022-12-29T09:48:37;97937.00;;;12.10
35582;BMP180;21687;48.900;9.188;2022-12-29T09:51:11;97931.00;;;12.00
35582;BMP180;21687;48.900;9.188;2022-12-29T09:53:43;97928.00;;;12.20
35582;BMP180;21687;48.900;9.188;2022-12-29T09:56:21;97934.00;;;12.20
35582;BMP180;21687;48.900;9.188;2022-12-29T09:58:52;97943.00;;;12.20
35582;BMP180;21687;48.900;9.188;2022-12-29T10:04:19;97939.00;;;12.20
35582;BMP180;21687;48.900;9.188;2022-12-29T10:09:45;97939.00;;;12.10
35582;BMP180;21687;48.900;9.188;2022-12-29T10:12:48;97947.00;;;12.20
35582;BMP180;21687;48.900;9.188;2022-12-29T10:21:22;97949.00;;;12.30
35582;BMP180;21687;48.900;9.188;2022-12-29T10:23:53;97955.00;;;12.30
35582;BMP180;21687;48.900;9.188;2022-12-29T10:26:25;97931.00;;;12.30
35582;BMP180;21687;48.900;9.188;2022-12-29T10:32:02;97934.00;;;12.10
35582;BMP180;21687;48.900;9.188;2022-12-29T10:34:36;97937.00;;;12.20
35582;BMP180;21687;48.900;9.188;2022-12-29T10:37:29;97936.00;;;12.30
35582;BMP180;21687;48.900;9.188;2022-12-29T10:39:56;97948.00;;;12.50
35582;BMP180;21687;48.900;9.188;2022-12-29T10:42:35;97936.00;;;12.50
35582;BMP180;21687;48.900;9.188;2022-12-29T10:45:04;97935.00;;;12.60
35582;BMP180;21687;48.900;9.188;2022-12-29T10:47:37;97944.00;;;12.70
35582;BMP180;21687;48.900;9.188;2022-12-29T10:50:05;97950.00;;;12.70
35582;BMP180;21687;48.900;9.188;2022-12-29T10:52:33;97944.00;;;12.60
35582;BMP180;21687;48.900;9.188;2022-12-29T10:55:12;97949.00;;;12.50
35582;BMP180;21687;48.900;9.188;2022-12-29T10:57:46;97932.00;;;12.40
35582;BMP180;21687;48.900;9.188;2022-12-29T11:00:18;97939.00;;;12.40
35582;BMP180;21687;48.900;9.188;2022-12-29T11:05:57;97946.00;;;12.30
35582;BMP180;21687;48.900;9.188;2022-12-29T11:08:33;97946.00;;;12.20
35582;BMP180;21687;48.900;9.188;2022-12-29T11:11:06;97936.00;;;12.10
35582;BMP180;21687;48.900;9.188;2022-12-29T11:13:48;97955.00;;;12.10
35582;BMP180;21687;48.900;9.188;2022-12-29T11:16:15;97956.00;;;12.20
35582;BMP180;21687;48.900;9.188;2022-12-29T11:18:52;97954.00;;;12.40
35582;BMP180;21687;48.900;9.188;2022-12-29T11:21:35;97941.00;;;12.60
35582;BMP180;21687;48.900;9.188;2022-12-29T11:26:45;97952.00;;;12.90
35582;BMP180;21687;48.900;9.188;2022-12-29T11:29:21;97954.00;;;12.90
35582;BMP180;21687;48.900;9.188;2022-12-29T11:31:52;97954.00;;;13.00
35582;BMP180;21687;48.900;9.188;2022-12-29T11:34:34;97946.00;;;12.90
35582;BMP180;21687;48.900;9.188;2022-12-29T11:37:49;97949.00;;;12.90
35582;BMP180;21687;48.900;9.188;2022-12-29T11:40:03;97952.00;;;13.00
35582;BMP180;21687;48.900;9.188;2022-12-29T11:42:38;97961.00;;;12.90
35582;BMP180;21687;48.900;9.188;2022-12-29T11:45:16;97961.00;;;12.80
35582;BMP180;21687;48.900;9.188;2022-12-29T11:47:56;97943.00;;;12.80
35582;BMP180;21687;48.900;9.188;2022-12-29T11:50:33;97943.00;;;12.80
35582;BMP180;21687;48.900;9.188;2022-12-29T11:53:19;97945.00;;;12.80
35582;BMP180;21687;48.900;9.188;2022-12-29T11:56:02;97940.00;;;12.80
35582;BMP180;21687;48.900;9.188;2022-12-29T11:58:32;97937.00;;;12.80
35582;BMP180;21687;48.900;9.188;2022-12-29T12:01:36;97946.00;;;12.60
35582;BMP180;21687;48.900;9.188;2022-12-29T12:04:08;97956.00;;;12.60
35582;BMP180;21687;48.900;9.188;2022-12-29T12:06:48;97942.00;;;12.60
35582;BMP180;21687;48.900;9.188;2022-12-29T12:09:22;97954.00;;;12.60
35582;BMP180;21687;48.900;9.188;2022-12-29T12:11:53;97966.00;;;12.50
35582;BMP180;21687;48.900;9.188;2022-12-29T12:14:37;97941.00;;;12.40
35582;BMP180;21687;48.900;9.188;2022-12-29T12:17:24;97956.00;;;12.40
35582;BMP180;21687;48.900;9.188;2022-12-29T12:20:34;97958.00;;;12.30
35582;BMP180;21687;48.900;9.188;2022-12-29T12:23:26;97951.00;;;12.30
35582;BMP180;21687;48.900;9.188;2022-12-29T12:26:28;97959.00;;;12.30
35582;BMP180;21687;48.900;9.188;2022-12-29T12:34:40;97960.00;;;12.30
35582;BMP180;21687;48.900;9.188;2022-12-29T12:46:18;97937.00;;;12.70
35582;BMP180;21687;48.900;9.188;2022-12-29T12:52:28;97918.00;;;12.80
35582;BMP180;21687;48.900;9.188;2022-12-29T13:00:23;97934.00;;;12.90
35582;BMP180;21687;48.900;9.188;2022-12-29T13:03:12;97927.00;;;12.80
35582;BMP180;21687;48.900;9.188;2022-12-29T13:06:04;97924.00;;;12.90
35582;BMP180;21687;48.900;9.188;2022-12-29T13:20:02;97917.00;;;12.80
35582;BMP180;21687;48.900;9.188;2022-12-29T13:29:30;97911.00;;;12.70
35582;BMP180;21687;48.900;9.188;2022-12-29T13:35:13;97895.00;;;12.50
35582;BMP180;21687;48.900;9.188;2022-12-29T13:40:36;97896.00;;;12.30
35582;BMP180;21687;48.900;9.188;2022-12-29T13:43:05;97904.00;;;12.20
35582;BMP180;21687;48.900;9.188;2022-12-29T13:45:33;97907.00;;;12.10
35582;BMP180;21687;48.900;9.188;2022-12-29T13:50:45;97904.00;;;12.00
35582;BMP180;21687;48.900;9.188;2022-12-29T13:56:18;97899.00;;;11.90
35582;BMP180;21687;48.900;9.188;2022-12-29T13:59:08;97901.00;;;11.90
35582;BMP180;21687;48.900;9.188;2022-12-29T14:04:20;97908.00;;;11.80
35582;BMP180;21687;48.900;9.188;2022-12-29T14:06:59;97905.00;;;11.90
35582;BMP180;21687;48.900;9.188;2022-12-29T14:09:50;97900.00;;;11.80
35582;BMP180;21687;48.900;9.188;2022-12-29T14:12:43;97906.00;;;11.70
35582;BMP180;21687;48.900;9.188;2022-12-29T14:17:40;97910.00;;;11.70
35582;BMP180;21687;48.900;9.188;2022-12-29T14:20:18;97919.00;;;11.60
35582;BMP180;21687;48.900;9.188;2022-12-29T14:25:57;97922.00;;;11.60
35582;BMP180;21687;48.900;9.188;2022-12-29T14:28:28;97928.00;;;11.60
35582;BMP180;21687;48.900;9.188;2022-12-29T14:30:56;97919.00;;;11.60
35582;BMP180;21687;48.900;9.188;2022-12-29T14:33:26;97918.00;;;11.60
35582;BMP180;21687;48.900;9.188;2022-12-29T14:35:53;97923.00;;;11.60
35582;BMP180;21687;48.900;9.188;2022-12-29T14:38:25;97925.00;;;11.60
35582;BMP180;21687;48.900;9.188;2022-12-29T14:40:53;97921.00;;;11.60
35582;BMP180;21687;48.900;9.188;2022-12-29T14:46:14;97918.00;;;11.50
35582;BMP180;21687;48.900;9.188;2022-12-29T14:48:43;97918.00;;;11.60
35582;BMP180;21687;48.900;9.188;2022-12-29T14:51:31;97917.00;;;11.50
35582;BMP180;21687;48.900;9.188;2022-12-29T14:53:59;97916.00;;;11.50
35582;BMP180;21687;48.900;9.188;2022-12-29T14:56:30;97907.00;;;11.50
35582;BMP180;21687;48.900;9.188;2022-12-29T14:59:04;97918.00;;;11.40
35582;BMP180;21687;48.900;9.188;2022-12-29T15:01:51;97919.00;;;11.40
35582;BMP180;21687;48.900;9.188;2022-12-29T15:04:25;97917.00;;;11.40
35582;BMP180;21687;48.900;9.188;2022-12-29T15:06:53;97905.00;;;11.40
35582;BMP180;21687;48.900;9.188;2022-12-29T15:15:01;97903.00;;;11.20
35582;BMP180;21687;48.900;9.188;2022-12-29T15:17:33;97906.00;;;11.30
35582;BMP180;21687;48.900;9.188;2022-12-29T15:22:55;97908.00;;;11.30
35582;BMP180;21687;48.900;9.188;2022-12-29T15:25:22;97916.00;;;11.20
35582;BMP180;21687;48.900;9.188;2022-12-29T15:27:51;97916.00;;;11.30
35582;BMP180;21687;48.900;9.188;2022-12-29T15:30:19;97930.00;;;11.30
35582;BMP180;21687;48.900;9.188;2022-12-29T15:32:47;97959.00;;;11.30
35582;BMP180;21687;48.900;9.188;2022-12-29T15:37:49;98026.00;;;10.00
35582;BMP180;21687;48.900;9.188;2022-12-29T15:40:30;98031.00;;;9.40
35582;BMP180;21687;48.900;9.188;2022-12-29T15:43:15;98010.00;;;9.00
35582;BMP180;21687;48.900;9.188;2022-12-29T15:45:44;98018.00;;;8.80
35582;BMP180;21687;48.900;9.188;2022-12-29T15:48:18;98007.00;;;8.70
35582;BMP180;21687;48.900;9.188;2022-12-29T15:50:46;97999.00;;;8.50
35582;BMP180;21687;48.900;9.188;2022-12-29T15:53:28;98005.00;;;8.50
35582;BMP180;21687;48.900;9.188;2022-12-29T15:56:00;98008.00;;;8.40
35582;BMP180;21687;48.900;9.188;2022-12-29T15:58:29;98009.00;;;8.30
35582;BMP180;21687;48.900;9.188;2022-12-29T16:00:58;98008.00;;;8.30
35582;BMP180;21687;48.900;9.188;2022-12-29T16:03:26;98008.00;;;8.30
35582;BMP180;21687;48.900;9.188;2022-12-29T16:05:56;98011.00;;;8.30
35582;BMP180;21687;48.900;9.188;2022-12-29T16:08:35;98016.00;;;8.30
35582;BMP180;21687;48.900;9.188;2022-12-29T16:11:22;98024.00;;;8.30
35582;BMP180;21687;48.900;9.188;2022-12-29T16:13:52;98021.00;;;8.30
35582;BMP180;21687;48.900;9.188;2022-12-29T16:16:31;98023.00;;;8.30
35582;BMP180;21687;48.900;9.188;2022-12-29T16:19:09;98024.00;;;8.30
35582;BMP180;21687;48.900;9.188;2022-12-29T16:21:37;98015.00;;;8.20
35582;BMP180;21687;48.900;9.188;2022-12-29T16:24:12;98024.00;;;8.20
35582;BMP180;21687;48.900;9.188;2022-12-29T16:26:45;98035.00;;;8.10
35582;BMP180;21687;48.900;9.188;2022-12-29T16:29:12;98039.00;;;8.10
35582;BMP180;21687;48.900;9.188;2022-12-29T16:31:54;98024.00;;;8.10
35582;BMP180;21687;48.900;9.188;2022-12-29T16:34:31;98025.00;;;8.10
35582;BMP180;21687;48.900;9.188;2022-12-29T16:37:01;98025.00;;;8.10
35582;BMP180;21687;48.900;9.188;2022-12-29T16:39:35;98025.00;;;8.10
35582;BMP180;21687;48.900;9.188;2022-12-29T16:50:31;98042.00;;;8.10
35582;BMP180;21687;48.900;9.188;2022-12-29T16:52:58;98043.00;;;8.10
35582;BMP180;21687;48.900;9.188;2022-12-29T16:55:25;98057.00;;;8.10
35582;BMP180;21687;48.900;9.188;2022-12-29T16:57:53;98051.00;;;8.10
35582;BMP180;21687;48.900;9.188;2022-12-29T17:00:27;98062.00;;;8.10
35582;BMP180;21687;48.900;9.188;2022-12-29T17:02:58;98060.00;;;8.10
35582;BMP180;21687;48.900;9.188;2022-12-29T17:05:25;98060.00;;;8.10
35582;BMP180;21687;48.900;9.188;2022-12-29T17:07:52;98066.00;;;8.00
35582;BMP180;21687;48.900;9.188;2022-12-29T17:10:19;98063.00;;;8.10